createdAt,value
2018-01-02T00:01:44.727Z,6.80
2018-01-02T00:04:12.174Z,6.90
2018-01-02T00:06:39.568Z,6.90
2018-01-02T00:09:07.081Z,6.90
2018-01-02T00:11:34.591Z,7.00
2018-01-02T00:14:02.025Z,7.00
2018-01-02T00:16:29.433Z,7.00
2018-01-02T00:18:56.842Z,7.00
2018-01-02T00:21:25.000Z,6.80
2018-01-02T00:23:52.517Z,6.80
2018-01-02T00:26:19.921Z,6.70
2018-01-02T00:28:47.328Z,6.70
2018-01-02T00:31:15.512Z,6.60
2018-01-02T00:33:43.718Z,6.50
2018-01-02T00:36:11.173Z,6.50
2018-01-02T00:38:39.385Z,6.50
2018-01-02T00:41:06.790Z,6.40
2018-01-02T00:43:34.202Z,6.40
2018-01-02T00:46:02.364Z,6.30
2018-01-02T00:48:29.799Z,6.30
2018-01-02T00:50:57.204Z,6.40
2018-01-02T00:53:24.609Z,6.40
2018-01-02T00:55:52.044Z,6.30
2018-01-02T00:58:19.450Z,6.30
2018-01-02T01:00:46.911Z,6.30
2018-01-02T01:03:14.320Z,6.30
2018-01-02T01:05:41.747Z,6.30
2018-01-02T01:08:09.173Z,6.30
2018-01-02T01:10:36.584Z,6.30
2018-01-02T01:13:03.987Z,6.30
2018-01-02T01:15:31.398Z,6.30
2018-01-02T01:17:59.569Z,6.20
2018-01-02T01:20:27.060Z,6.20
2018-01-02T01:22:54.491Z,6.20
2018-01-02T01:25:22.722Z,6.20
2018-01-02T01:27:50.132Z,6.20
2018-01-02T01:30:17.548Z,6.10
2018-01-02T01:32:45.036Z,6.10
2018-01-02T01:35:12.430Z,6.10
2018-01-02T01:37:39.837Z,6.00
2018-01-02T01:40:08.017Z,6.00
2018-01-02T01:42:35.420Z,6.00
2018-01-02T01:45:02.878Z,6.00
2018-01-02T01:47:31.037Z,6.00
2018-01-02T01:49:58.460Z,6.00
2018-01-02T01:52:25.861Z,6.00
2018-01-02T01:54:53.271Z,6.00
2018-01-02T01:57:20.746Z,6.00
2018-01-02T01:59:48.217Z,6.00
2018-01-02T02:02:15.621Z,6.00
2018-01-02T02:04:43.040Z,6.00
2018-01-02T02:07:10.455Z,6.00
2018-01-02T02:09:37.856Z,6.10
2018-01-02T02:12:05.376Z,6.10
2018-01-02T02:14:32.769Z,6.10
2018-01-02T02:17:00.181Z,6.00
2018-01-02T02:19:28.351Z,6.00
2018-01-02T02:21:56.529Z,6.00
2018-01-02T02:24:24.045Z,6.00
2018-01-02T02:26:51.440Z,6.00
2018-01-02T02:29:18.833Z,6.00
2018-01-02T02:31:46.278Z,6.00
2018-01-02T02:34:13.666Z,6.00
2018-01-02T02:36:41.071Z,6.00
2018-01-02T02:39:08.469Z,6.00
2018-01-02T02:41:35.885Z,6.00
2018-01-02T02:44:03.273Z,6.00
2018-01-02T02:46:30.687Z,6.00
2018-01-02T02:48:58.093Z,6.00
2018-01-02T02:51:26.296Z,6.00
2018-01-02T02:53:54.821Z,6.00
2018-01-02T02:56:22.229Z,6.00
2018-01-02T02:58:50.403Z,6.00
2018-01-02T03:01:17.809Z,5.90
2018-01-02T03:03:45.278Z,5.90
2018-01-02T03:06:12.685Z,5.90
2018-01-02T03:08:40.128Z,5.90
2018-01-02T03:11:07.582Z,5.90
2018-01-02T03:13:35.053Z,5.90
2018-01-02T03:16:02.463Z,5.90
2018-01-02T03:18:29.870Z,5.90
2018-01-02T03:20:58.041Z,5.90
2018-01-02T03:23:25.437Z,5.80
2018-01-02T03:25:52.854Z,5.80
2018-01-02T03:28:20.274Z,5.80
2018-01-02T03:30:47.684Z,5.80
2018-01-02T03:33:15.086Z,5.80
2018-01-02T03:35:42.499Z,5.80
2018-01-02T03:38:09.934Z,5.80
2018-01-02T03:40:38.112Z,5.80
2018-01-02T03:43:06.277Z,5.80
2018-01-02T03:45:33.781Z,5.70
2018-01-02T03:48:01.185Z,5.80
2018-01-02T03:50:28.601Z,5.80
2018-01-02T03:52:56.808Z,5.80
2018-01-02T03:55:24.213Z,5.80
2018-01-02T03:57:51.625Z,5.90
2018-01-02T04:00:19.857Z,5.90
2018-01-02T04:02:47.266Z,5.90
2018-01-02T04:05:14.693Z,5.90
2018-01-02T04:07:42.141Z,5.90
2018-01-02T04:10:09.610Z,5.90
2018-01-02T04:12:37.020Z,5.90
2018-01-02T04:15:04.431Z,5.90
2018-01-02T04:17:32.631Z,6.00
2018-01-02T04:20:00.041Z,6.00
2018-01-02T04:22:27.573Z,6.00
2018-01-02T04:24:55.735Z,6.00
2018-01-02T04:27:23.932Z,6.00
2018-01-02T04:29:51.354Z,6.00
2018-01-02T04:32:18.772Z,6.10
2018-01-02T04:34:46.233Z,6.00
2018-01-02T04:37:13.719Z,6.00
2018-01-02T04:39:41.129Z,6.00
2018-01-02T04:42:08.553Z,6.00
2018-01-02T04:44:36.012Z,6.00
2018-01-02T04:47:03.489Z,6.00
2018-01-02T04:49:30.897Z,6.00
2018-01-02T04:51:58.319Z,6.00
2018-01-02T04:54:26.608Z,6.10
2018-01-02T04:56:54.077Z,6.00
2018-01-02T04:59:21.561Z,6.00
2018-01-02T05:01:49.031Z,6.10
2018-01-02T05:04:16.434Z,6.10
2018-01-02T05:06:43.845Z,6.10
2018-01-02T05:09:11.257Z,6.10
2018-01-02T05:11:38.673Z,6.10
2018-01-02T05:14:06.081Z,6.10
2018-01-02T05:16:33.489Z,6.10
2018-01-02T05:19:01.002Z,6.10
2018-01-02T05:21:28.470Z,6.10
2018-01-02T05:23:56.636Z,6.10
2018-01-02T05:26:24.117Z,6.10
2018-01-02T05:28:51.595Z,6.10
2018-01-02T05:31:19.749Z,6.10
2018-01-02T05:33:47.922Z,6.10
2018-01-02T05:36:15.345Z,6.10
2018-01-02T05:38:42.797Z,6.10
2018-01-02T05:41:10.261Z,6.20
2018-01-02T05:43:37.665Z,6.20
2018-01-02T05:46:05.081Z,6.20
2018-01-02T05:48:33.281Z,6.10
2018-01-02T05:51:00.697Z,6.20
2018-01-02T05:53:28.217Z,6.20
2018-01-02T05:55:55.634Z,6.20
2018-01-02T05:58:23.049Z,6.20
2018-01-02T06:00:51.234Z,6.20
2018-01-02T06:03:19.402Z,6.20
2018-01-02T06:05:47.582Z,6.20
2018-01-02T06:08:15.010Z,6.10
2018-01-02T06:10:42.422Z,6.20
2018-01-02T06:13:10.645Z,6.10
2018-01-02T06:15:38.801Z,6.10
2018-01-02T06:18:07.010Z,6.10
2018-01-02T06:20:34.433Z,6.10
2018-01-02T06:23:01.857Z,6.10
2018-01-02T06:25:29.265Z,6.10
2018-01-02T06:27:56.791Z,6.10
2018-01-02T06:30:24.193Z,6.10
2018-01-02T06:32:51.608Z,6.10
2018-01-02T06:35:19.082Z,6.10
2018-01-02T06:37:46.493Z,6.10
2018-01-02T06:40:13.921Z,6.10
2018-01-02T06:42:41.331Z,6.10
2018-01-02T06:45:08.764Z,6.10
2018-01-02T06:47:36.232Z,6.10
2018-01-02T06:50:03.703Z,6.10
2018-01-02T06:52:31.110Z,6.10
2018-01-02T06:54:58.529Z,6.10
2018-01-02T06:57:25.972Z,6.10
2018-01-02T06:59:53.381Z,6.10
2018-01-02T07:02:20.804Z,6.10
2018-01-02T07:04:48.977Z,6.10
2018-01-02T07:07:16.427Z,6.10
2018-01-02T07:09:43.874Z,6.10
2018-01-02T07:12:11.340Z,6.10
2018-01-02T07:14:39.505Z,6.10
2018-01-02T07:17:07.697Z,6.10
2018-01-02T07:19:35.113Z,6.00
2018-01-02T07:22:02.517Z,6.10
2018-01-02T07:24:30.710Z,6.10
2018-01-02T07:26:58.877Z,6.10
2018-01-02T07:29:26.341Z,6.10
2018-01-02T07:31:53.751Z,6.10
2018-01-02T07:34:21.153Z,6.10
2018-01-02T07:36:48.614Z,6.20
2018-01-02T07:39:16.026Z,6.20
2018-01-02T07:41:44.238Z,6.10
2018-01-02T07:44:11.715Z,6.10
2018-01-02T07:46:39.874Z,6.10
2018-01-02T07:49:08.081Z,6.10
2018-01-02T07:51:35.500Z,6.10
2018-01-02T07:54:03.019Z,6.20
2018-01-02T07:56:30.447Z,6.20
2018-01-02T07:58:57.858Z,6.20
2018-01-02T08:01:25.288Z,6.20
2018-01-02T08:03:52.690Z,6.20
2018-01-02T08:06:20.200Z,6.20
2018-01-02T08:08:48.320Z,6.40
2018-01-02T08:11:16.534Z,7.10
2018-01-02T08:13:43.933Z,7.10
2018-01-02T08:16:11.365Z,7.30
2018-01-02T08:18:38.786Z,7.10
2018-01-02T08:21:06.194Z,7.00
2018-01-02T08:23:33.677Z,6.80
2018-01-02T08:26:01.087Z,6.70
2018-01-02T08:28:28.634Z,6.50
2018-01-02T08:30:56.117Z,6.50
2018-01-02T08:33:23.491Z,6.40
2018-01-02T08:35:50.918Z,6.40
2018-01-02T08:38:18.385Z,6.30
2018-01-02T08:40:45.805Z,6.40
2018-01-02T08:43:13.241Z,6.40
2018-01-02T08:45:40.793Z,6.40
2018-01-02T08:48:08.941Z,6.40
2018-01-02T08:50:37.196Z,6.40
2018-01-02T08:53:04.589Z,6.40
2018-01-02T08:55:32.009Z,6.50
2018-01-02T08:57:59.414Z,6.40
2018-01-02T09:00:26.842Z,6.40
2018-01-02T09:02:54.256Z,6.40
2018-01-02T09:05:21.679Z,6.30
2018-01-02T09:07:49.092Z,6.30
2018-01-02T09:10:16.611Z,6.30
2018-01-02T09:12:47.944Z,6.30
2018-01-02T09:15:16.171Z,6.30
2018-01-02T09:17:43.629Z,6.30
2018-01-02T09:20:11.815Z,6.40
2018-01-02T09:22:39.272Z,6.40
2018-01-02T09:25:06.694Z,6.40
2018-01-02T09:27:34.124Z,6.40
2018-01-02T09:30:01.541Z,6.40
2018-01-02T09:32:29.056Z,6.40
2018-01-02T09:34:56.626Z,6.40
2018-01-02T09:37:24.922Z,6.50
2018-01-02T09:39:53.105Z,6.50
2018-01-02T09:42:20.561Z,6.50
2018-01-02T09:44:48.040Z,6.50
2018-01-02T09:47:16.187Z,6.60
2018-01-02T09:49:44.436Z,6.70
2018-01-02T09:52:11.846Z,6.70
2018-01-02T09:54:40.031Z,6.70
2018-01-02T09:57:08.214Z,6.70
2018-01-02T09:59:36.413Z,6.70
2018-01-02T10:02:04.593Z,6.70
2018-01-02T10:04:32.809Z,6.80
2018-01-02T10:07:00.278Z,6.80
2018-01-02T10:09:28.433Z,6.80
2018-01-02T10:11:56.617Z,6.90
2018-01-02T10:14:24.841Z,7.00
2018-01-02T10:16:53.025Z,7.00
2018-01-02T10:19:20.493Z,7.00
2018-01-02T10:21:47.928Z,7.00
2018-01-02T10:24:16.146Z,7.00
2018-01-02T10:26:43.612Z,7.00
2018-01-02T10:29:11.033Z,7.10
2018-01-02T10:31:38.553Z,7.20
2018-01-02T10:34:05.969Z,7.20
2018-01-02T10:36:33.380Z,7.30
2018-01-02T10:39:01.558Z,7.30
2018-01-02T10:41:29.730Z,7.30
2018-01-02T10:43:57.945Z,7.30
2018-01-02T10:46:25.345Z,7.30
2018-01-02T10:48:52.773Z,7.30
2018-01-02T10:51:20.927Z,7.40
2018-01-02T10:53:49.106Z,7.40
2018-01-02T10:56:16.509Z,7.40
2018-01-02T10:58:43.916Z,7.50
2018-01-02T11:04:06.070Z,7.60
2018-01-02T11:06:33.538Z,7.70
2018-01-02T11:09:00.984Z,7.80
2018-01-02T11:11:31.944Z,7.90
2018-01-02T11:13:59.353Z,7.90
2018-01-02T11:16:26.785Z,7.90
2018-01-02T11:18:54.193Z,7.90
2018-01-02T11:21:21.699Z,7.70
2018-01-02T11:23:49.089Z,7.60
2018-01-02T11:26:16.513Z,7.50
2018-01-02T11:28:43.929Z,7.50
2018-01-02T11:31:11.379Z,7.40
2018-01-02T11:33:39.566Z,7.30
2018-01-02T11:36:07.775Z,7.30
2018-01-02T11:38:35.237Z,7.30
2018-01-02T11:41:02.640Z,7.30
2018-01-02T11:43:30.060Z,7.30
2018-01-02T11:45:58.271Z,7.30
2018-01-02T11:48:25.741Z,7.30
2018-01-02T11:50:53.158Z,7.40
2018-01-02T11:53:20.665Z,7.30
2018-01-02T11:55:48.118Z,7.30
2018-01-02T11:58:16.305Z,7.30
2018-01-02T12:00:44.499Z,7.30
2018-01-02T12:03:12.697Z,7.30
2018-01-02T12:05:40.158Z,7.30
2018-01-02T12:08:07.640Z,7.40
2018-01-02T12:10:35.089Z,7.40
2018-01-02T12:13:02.570Z,7.40
2018-01-02T12:15:29.989Z,7.30
2018-01-02T12:17:57.410Z,7.30
2018-01-02T12:20:24.921Z,7.30
2018-01-02T12:22:52.333Z,7.30
2018-01-02T12:25:20.790Z,7.40
2018-01-02T12:27:48.319Z,7.40
2018-01-02T12:30:16.534Z,7.30
2018-01-02T12:32:43.953Z,7.30
2018-01-02T12:35:11.367Z,7.30
2018-01-02T12:37:38.785Z,7.30
2018-01-02T12:40:06.269Z,7.30
2018-01-02T12:42:33.751Z,7.30
2018-01-02T12:45:01.162Z,7.40
2018-01-02T12:47:28.576Z,7.40
2018-01-02T12:49:55.993Z,7.50
2018-01-02T12:52:23.407Z,7.50
2018-01-02T12:54:50.829Z,7.60
2018-01-02T12:57:18.243Z,7.70
2018-01-02T12:59:45.687Z,7.90
2018-01-02T13:02:13.885Z,7.90
2018-01-02T13:04:41.365Z,7.90
2018-01-02T13:07:09.044Z,7.80
2018-01-02T13:09:37.237Z,7.60
2018-01-02T13:12:04.717Z,7.60
2018-01-02T13:14:32.167Z,7.50
2018-01-02T13:17:00.334Z,7.40
2018-01-02T13:19:28.508Z,7.30
2018-01-02T13:21:56.682Z,7.30
2018-01-02T13:24:24.101Z,7.30
2018-01-02T13:26:51.561Z,7.30
2018-01-02T13:29:19.705Z,7.10
2018-01-02T13:31:47.125Z,7.10
2018-01-02T13:34:14.521Z,7.00
2018-01-02T13:36:41.936Z,6.90
2018-01-02T13:39:09.433Z,6.90
2018-01-02T13:41:36.873Z,7.00
2018-01-02T13:44:04.281Z,7.00
2018-01-02T13:46:31.689Z,7.00
2018-01-02T13:48:59.861Z,6.90
2018-01-02T13:51:27.277Z,6.90
2018-01-02T13:53:54.709Z,6.90
2018-01-02T13:56:22.114Z,6.90
2018-01-02T13:58:49.521Z,6.80
2018-01-02T14:01:16.947Z,6.70
2018-01-02T14:03:45.114Z,6.80
2018-01-02T14:06:12.509Z,6.80
2018-01-02T14:08:40.927Z,6.90
2018-01-02T14:11:08.369Z,7.10
2018-01-02T14:13:35.769Z,7.20
2018-01-02T14:16:03.181Z,7.30
2018-01-02T14:18:30.602Z,7.30
2018-01-02T14:20:58.017Z,7.30
2018-01-02T14:23:26.209Z,7.10
2018-01-02T14:25:53.677Z,7.10
2018-01-02T14:28:21.098Z,7.00
2018-01-02T14:30:48.505Z,6.90
2018-01-02T14:33:16.694Z,7.00
2018-01-02T14:35:44.908Z,7.00
2018-01-02T14:38:12.309Z,7.00
2018-01-02T14:40:39.832Z,6.90
2018-01-02T14:43:07.279Z,6.90
2018-01-02T14:45:34.673Z,6.80
2018-01-02T14:48:02.101Z,6.80
2018-01-02T14:50:30.309Z,6.80
2018-01-02T14:52:57.716Z,6.80
2018-01-02T14:55:25.122Z,6.70
2018-01-02T14:57:53.285Z,6.60
2018-01-02T15:00:20.767Z,6.60
2018-01-02T15:02:48.179Z,6.60
2018-01-02T15:05:15.652Z,6.60
2018-01-02T15:07:43.118Z,6.50
2018-01-02T15:10:10.589Z,6.40
2018-01-02T15:12:38.056Z,6.40
2018-01-02T15:15:05.461Z,6.40
2018-01-02T15:17:33.217Z,6.30
2018-01-02T15:20:00.617Z,6.30
2018-01-02T15:22:28.031Z,6.20
2018-01-02T15:24:55.445Z,6.20
2018-01-02T15:27:22.850Z,6.10
2018-01-02T15:29:50.314Z,6.10
2018-01-02T15:32:18.750Z,6.10
2018-01-02T15:34:46.198Z,6.10
2018-01-02T15:37:13.960Z,6.10
2018-01-02T15:39:42.137Z,6.20
2018-01-02T15:42:10.333Z,6.20
2018-01-02T15:44:38.526Z,6.20
2018-01-02T15:47:05.925Z,6.20
2018-01-02T15:49:33.338Z,6.30
2018-01-02T15:52:01.542Z,6.30
2018-01-02T15:54:28.947Z,6.30
2018-01-02T15:56:56.381Z,6.30
2018-01-02T15:59:23.785Z,6.30
2018-01-02T16:01:51.236Z,6.30
2018-01-02T16:04:18.615Z,6.30
2018-01-02T16:06:46.044Z,6.30
2018-01-02T16:09:13.448Z,6.40
2018-01-02T16:11:40.937Z,6.40
2018-01-02T16:14:08.345Z,6.40
2018-01-02T16:16:36.512Z,6.40
2018-01-02T16:19:04.010Z,6.40
2018-01-02T16:21:31.425Z,6.40
2018-01-02T16:23:58.837Z,6.40
2018-01-02T16:26:26.428Z,6.40
2018-01-02T16:28:53.883Z,6.40
2018-01-02T16:31:22.070Z,6.40
2018-01-02T16:33:49.497Z,6.40
2018-01-02T16:36:17.237Z,6.40
2018-01-02T16:38:45.984Z,6.40
2018-01-02T16:41:13.421Z,6.30
2018-01-02T16:43:40.821Z,6.40
2018-01-02T16:46:09.051Z,6.40
2018-01-02T16:48:37.209Z,6.40
2018-01-02T16:51:05.373Z,6.40
2018-01-02T16:53:32.886Z,6.40
2018-01-02T16:56:01.061Z,6.30
2018-01-02T16:58:28.541Z,6.30
2018-01-02T17:00:55.956Z,6.40
2018-01-02T17:03:23.369Z,6.30
2018-01-02T17:05:50.958Z,6.40
2018-01-02T17:08:18.355Z,6.40
2018-01-02T17:10:45.775Z,6.30
2018-01-02T17:13:13.194Z,6.30
2018-01-02T17:15:40.624Z,6.30
2018-01-02T17:18:08.021Z,6.30
2018-01-02T17:20:35.434Z,6.30
2018-01-02T17:23:03.601Z,6.30
2018-01-02T17:25:31.794Z,6.30
2018-01-02T17:27:59.307Z,6.30
2018-01-02T17:30:26.709Z,6.30
2018-01-02T17:32:54.122Z,6.30
2018-01-02T17:35:21.961Z,6.30
2018-01-02T17:37:49.373Z,6.30
2018-01-02T17:40:16.794Z,6.30
2018-01-02T17:42:44.301Z,6.30
2018-01-02T17:45:12.478Z,6.40
2018-01-02T17:47:40.792Z,6.30
2018-01-02T17:50:08.212Z,6.30
2018-01-02T17:52:35.617Z,6.30
2018-01-02T17:55:03.030Z,6.30
2018-01-02T17:57:30.458Z,6.30
2018-01-02T17:59:57.862Z,6.30
2018-01-02T18:02:25.277Z,6.30
2018-01-02T18:04:53.452Z,6.20
2018-01-02T18:07:21.629Z,6.20
2018-01-02T18:09:49.913Z,6.20
2018-01-02T18:12:17.327Z,6.10
2018-01-02T18:14:44.734Z,6.10
2018-01-02T18:17:12.142Z,6.20
2018-01-02T18:19:39.553Z,6.20
2018-01-02T18:22:06.966Z,6.20
2018-01-02T18:24:35.149Z,6.20
2018-01-02T18:27:03.317Z,6.20
2018-01-02T18:29:30.733Z,6.20
2018-01-02T18:31:58.233Z,6.20
2018-01-02T18:34:25.691Z,6.20
2018-01-02T18:36:53.130Z,6.10
2018-01-02T18:39:21.286Z,6.20
2018-01-02T18:41:48.704Z,6.10
2018-01-02T18:44:16.115Z,6.10
2018-01-02T18:46:44.358Z,6.10
2018-01-02T18:49:11.776Z,6.10
2018-01-02T18:51:39.211Z,6.10
2018-01-02T18:54:06.642Z,6.10
2018-01-02T18:56:34.054Z,6.10
2018-01-02T18:59:01.469Z,6.10
2018-01-02T19:01:28.897Z,6.10
2018-01-02T19:03:56.304Z,6.20
2018-01-02T19:06:23.840Z,6.10
2018-01-02T19:52:31.923Z,6.10
2018-01-02T19:54:59.329Z,5.60
2018-01-02T19:57:26.783Z,5.60
2018-01-02T19:59:54.201Z,5.60
2018-01-02T20:02:21.617Z,5.60
2018-01-02T20:04:49.033Z,5.60
2018-01-02T20:07:16.557Z,5.60
2018-01-02T20:09:44.063Z,5.60
2018-01-02T20:12:11.518Z,5.60
2018-01-02T20:14:38.982Z,5.60
2018-01-02T20:17:06.433Z,5.60
2018-01-02T20:19:33.894Z,5.60
2018-01-02T20:22:01.400Z,5.60
2018-01-02T20:24:28.895Z,5.60
2018-01-02T20:26:56.272Z,5.80
2018-01-02T20:29:24.455Z,5.70
2018-01-02T20:31:52.626Z,5.70
2018-01-02T20:34:21.538Z,5.70
2018-01-02T20:36:49.733Z,5.60
2018-01-02T20:39:17.903Z,5.60
2018-01-02T20:41:45.326Z,5.60
2018-01-02T20:44:12.753Z,5.60
2018-01-02T20:46:40.954Z,5.50
2018-01-02T20:49:08.369Z,5.50
2018-01-02T20:51:35.906Z,5.50
2018-01-02T20:54:04.087Z,5.40
2018-01-02T20:56:31.570Z,5.40
2018-01-02T20:58:58.986Z,5.40
2018-01-02T21:01:26.495Z,5.40
2018-01-02T21:03:53.962Z,5.40
2018-01-02T21:06:21.405Z,5.40
2018-01-02T21:08:48.805Z,5.40
2018-01-02T21:11:16.282Z,5.40
2018-01-02T21:13:43.715Z,5.40
2018-01-02T21:16:11.889Z,5.30
2018-01-02T21:18:39.295Z,5.30
2018-01-02T21:21:06.789Z,5.40
2018-01-02T21:23:34.317Z,5.40
2018-01-02T21:26:01.738Z,5.40
2018-01-02T21:28:29.169Z,5.40
2018-01-02T21:30:56.630Z,5.50
2018-01-02T21:33:23.995Z,5.50
2018-01-02T21:35:51.466Z,5.50
2018-01-02T21:38:18.993Z,5.50
2018-01-02T21:40:46.518Z,5.50
2018-01-02T21:43:14.694Z,5.50
2018-01-02T21:45:42.105Z,5.50
2018-01-02T21:48:09.564Z,5.50
2018-01-02T21:50:36.981Z,5.50
2018-01-02T21:53:05.218Z,5.50
2018-01-02T21:55:32.629Z,5.50
2018-01-02T21:58:00.876Z,5.60
2018-01-02T22:00:28.323Z,5.50
2018-01-02T22:02:55.754Z,5.50
2018-01-02T22:05:23.938Z,5.50
2018-01-02T22:07:52.146Z,5.50
2018-01-02T22:10:19.624Z,5.50
2018-01-02T22:12:47.097Z,5.50
2018-01-02T22:15:15.249Z,5.60
2018-01-02T22:17:43.498Z,5.60
2018-01-02T22:20:10.937Z,5.60
2018-01-02T22:22:38.357Z,5.70
2018-01-02T22:25:05.881Z,5.70
2018-01-02T22:27:33.365Z,5.80
2018-01-02T22:30:00.801Z,5.80
2018-01-02T22:32:28.217Z,5.80
2018-01-02T22:34:55.626Z,5.90
2018-01-02T22:37:23.796Z,5.90
2018-01-02T22:39:51.993Z,5.90
2018-01-02T22:42:20.169Z,5.80
2018-01-02T22:44:47.685Z,5.80
2018-01-02T22:47:15.138Z,5.80
2018-01-02T22:49:42.539Z,5.80
2018-01-02T22:52:09.962Z,5.80
2018-01-02T22:54:38.142Z,5.70
2018-01-02T22:57:06.339Z,5.70
2018-01-02T22:59:34.490Z,5.70
2018-01-02T23:02:01.902Z,5.70
2018-01-02T23:04:29.358Z,5.70
2018-01-02T23:06:56.761Z,5.70
2018-01-02T23:09:24.181Z,5.60
2018-01-02T23:11:52.349Z,5.60
2018-01-02T23:14:19.757Z,5.60
2018-01-02T23:16:47.236Z,5.60
2018-01-02T23:19:14.718Z,5.60
2018-01-02T23:21:42.131Z,5.60
2018-01-02T23:24:09.557Z,5.60
2018-01-02T23:26:36.962Z,5.60
2018-01-02T23:29:04.397Z,5.70
2018-01-02T23:31:31.823Z,5.70
2018-01-02T23:34:00.002Z,5.70
2018-01-02T23:36:27.489Z,5.70
2018-01-02T23:38:54.924Z,5.80
2018-01-02T23:41:22.445Z,5.80
2018-01-02T23:43:50.594Z,5.90
2018-01-02T23:46:18.021Z,5.80
2018-01-02T23:48:45.482Z,5.90
2018-01-02T23:51:12.978Z,5.90
2018-01-02T23:53:40.390Z,5.90
2018-01-02T23:56:08.598Z,5.90
2018-01-02T23:58:36.784Z,5.90
